Open Full Screen Window  High Contrast Mode
Wind Gusting 24 knots
19
June 23, 2017 3:28 PM CDT
Weather Information
Wind Direction
  290 °
Wind Speed
  19 kt (22 mph)
Wind Gust
  24 kt (28 mph)
Altimeter
29.84 in
Visibility
10 SM
Temperature
17° C
63° F
Dewpoint
10° C
50° F
Humidity
64%
1hr Rain Fall
00.00 in.
24hr Rain Fall
00.03 in.
Sky Condition
Overcast @ 4,700 ft
Scattered @ 2,700 ft
VFR

METAR KBJI 232028Z AUTO 29019G24KT 10SM SCT027 OVC047 17/10 A2984 RMK AO2 T01680097

*Background is not an actual portrayal of the airport.